cliquez pour ajouter le site Runraid à vos favoris  English version (google)  Retour à l'accueil Ecrire à l'auteur du site Runraid : Michel Jourdan



Les prochaines courses


Les derniers résultats

cliquez pour visualiser la page complète relatant la chronologie des éruptions du Piton de la Fournaise
éruptions Piton de la Fournaise


Ile de La Réunion

 Diagonale des Fous 

Ecrire au créateur du site : Michel Jourdan
Contact


2014-08-15 - Foulées de Saint-Leu

Pour consulter le palmarès d'un coureur, un clic sur son nom !

Vous avez des remarques, corrections, ... sur ces résultats , un clic sur --> pour me transmettre toute information concernant les classements


Foulées de Saint-Leu - 2014 : classement des 263 finishers
Place Nom Temps Cat. Club Sexe Clt/cat.
Place Nom Temps Cat. Club Sexe Clt/cat.
1 LEBON FRANCOIS 00:31:35 V1M CASM M 240
2 DUPUY DAVID 00:32:49 V1M CAPOSS M 193
3 IMONJA Jeremie 00:33:08 SEM - M 1 SEM 227
4 CADET JEAN MARIE 00:33:34 SEM - M 2 SEM 62
5 BARDEUR NICOLAS 00:33:36 CAM CAPP M 1 CAM 15
6 LEBON Juanito 00:33:43 SEM - M 3 SEM 241
7 BARRET BENJAMIN 00:34:15 V1M CASM M 3 V1M 148
8 VIDOT YANNICK 00:35:32 SEM BNA M 4 SEM 58
9 PAPON FRANCOIS 00:35:33 SEM - M 5 SEM 28
10 ROBERT JEAN LOUIS 00:36:05 V1M - M 4 V1M 337
11 PAYET Raynaud 00:36:06 SEM - M 6 SEM 290
12 BLOTTIN NICOLAS 00:36:25 SEM ACSP M 7 SEM 55
13 SALVADOR Jean Louis 00:37:30 V1M - M 5 V1M 304
14 MAANE KARIM 00:37:39 V1M COSPI M 6 V1M 252
15 FONTAINE fabrice 00:37:46 SEM - M 8 SEM 71
16 NOEL CAMILLE 00:37:48 SEM AC ST LEU M 9 SEM 280
17 BOBATE RESHAD 00:37:52 SEM CSSDA M 10 SEM 83
18 ATTOUMANE SALIM 00:37:55 ESM ACSP M 1 ESM 72
19 HOARAU FABRICE 00:38:19 SEM CAPP M 11 SEM 505
20 SAINT PERON TITOUAN 00:38:28 ESM CAPC M 2 ESM 119
21 THOMAS THIERRY 00:38:33 SEM BNA M 12 SEM 66
22 MASSAIN Jacques 00:38:42 V2M - M 1 V2M 268
23 HAMOT Yannis 00:38:43 V1M - M 7 V1M 69
24 TRIHAN MALO 00:38:43 V1M ACSP M 8 V1M 45
25 LEBON Alexis 00:39:04 SEM - M 13 SEM 239
26 ALEFE JEAN ANACLET 00:39:09 V1M CASL M 9 V1M 137
27 GARCIN Jean Emile 00:39:12 SEM - M 14 SEM 102
28 ELLAMA Roland 00:39:28 V2M - M 2 V2M 331
29 JEANNEAU WILLY 00:39:33 V1M - M 10 V1M 64
30 PAJANIANDY JEAN RENE 00:39:37 V2M CSSDA M 3 V2M 87
31 GONTHIER david 00:39:39 SEM - M 15 SEM 97
32 CONTRERAS BENOIT 00:39:50 SEM - M 16 SEM 99
33 BARET HYANIS 00:39:50 V1M DA M 11 V1M 147
34 VANDERPERRE JEAN MARC ROGER 00:39:57 V2M DA M 4 V2M 35
35 QUENU STEPHANE 00:40:14 SEM USPGA M 17 SEM 344
36 DUBART KEVIN 00:40:15 CAM CASM M 2 CAM 9
37 VAITILINGOM Philippe 00:40:20 V1M - M 12 V1M 320
38 LEOCADIE JEAN LOUIS 00:40:21 V1M CAPP M 13 V1M 245
39 LEBON JIMMY JOSEPH 00:40:22 SEM SPAC M 18 SEM 506
40 PALMA Johan 00:40:29 SEM - M 19 SEM 100
41 DUBOIS VIVIEN 00:40:31 JUM AC ST LEU M 1 JUM 191
42 LON MON POY ERIC 00:40:31 V1M ACSP M 14 V1M 248
43 TRAMONI Pascal 00:40:33 SEM - M 20 SEM 318
44 COROLLEUR Sebastien 00:40:34 SEM - M 21 SEM 179
45 LEBRETON ISABELLE 00:40:42 SEF CASL F 1ere F 345
46 VITRY BRYAN 00:40:48 JUM CASL M 2 JUM 341
47 TRAMONI Perrine 00:40:49 SEF ORT F 2eme F 120
48 PIGNOLET Thierry 00:40:56 V2M - M 5 V2M 295
49 LAGOURDE Alexandre 00:40:59 SEM - M 22 SEM 232
50 MAREUX EUGENIE 00:40:59 SEF CAPC F 3eme F 264
51 ATIA ANNE 00:41:00 V1F ST LOUIS F 1 V1F 32
52 ROLLAND ALIX 00:41:05 V2M CAPP M 6 V2M 41
53 MARIE FRANCOISE FRED 00:41:10 V2M CAPP M 7 V2M 118
54 POTONIE Yoann 00:41:13 SEM - M 23 SEM 79
55 PAYET ANTOINE 00:41:38 CAM CAPP M 3 CAM 65
56 ROUSSEAU JEAN ERIC 00:41:42 V1M ST LOUIS M 15 V1M 112
57 URBATRO DOMINIQUE 00:41:48 V1M ACBP M 16 V1M 38
58 MAZUE Romain 00:41:49 SEM - M 24 SEM 270
59 CALPETARD JEAN FABRICE 00:41:52 V1M DA M 17 V1M 166
60 NICOLE Frederic 00:41:52 SEM - M 25 SEM 43
61 CALPETARD MARIE SANDRINE 00:41:52 SEF DA F 4 SEF 167
62 AH SENG DAVID 00:42:11 SEM BNA M 26 SEM 135
63 BIVI PAOLO 00:42:13 V2M AC ENTENTE M 8 V2M 48
64 BOULANGER Fabrice 00:42:18 SEM - M 27 SEM 157
65 ABADO olivier 00:42:23 V1M - M 18 V1M 4
66 MITHRIDATE Jimmy 00:42:28 SEM - M 28 SEM 275
67 DORANGE Raphael 00:42:39 V1M - M 19 V1M 189
68 GALHAUT Alexandre 00:42:51 SEM - M 29 SEM 208
69 DIJOUX DOMINIQUE 00:42:58 SEM - M 30 SEM 57
70 AURE YVON 00:43:01 V2M ACSP M 9 V2M 141
71 DELAUNAY DIDIER 00:43:01 SEM CAPOSS M 31 SEM 6
72 ADAOUDe Loic 00:43:06 SEM - M 32 SEM 20
73 AH HONE Mathieu 00:43:06 SEM - M 33 SEM 134
74 HACHE david 00:43:07 V1M - M 20 V1M 90
75 PALMA Julie 00:43:08 SEF - F 5 SEF 21
76 MARA JEAN FRANCOIS 00:43:09 V1M DA M 21 V1M 261
77 ELLAMA Nicolas 00:43:16 SEM - M 34 SEM 194
78 CADET ARMANDE 00:43:17 V3F DA F 1 V3F 163
79 DOMBECK Nicolas 00:43:21 SEM - M 35 SEM 11
80 BENDOUMA DJAMAL 00:43:21 V2M - M 10 V2M 350
81 MAILLOT Serges 00:43:54 V2M - M 11 V2M 259
82 GRANDMONTAGNE NICOLAS 00:43:54 SEM - M 36 SEM 347
83 AURAT PIERRE ALEXANDRE 00:43:57 SEM - M 37 SEM 67
84 GERBITH Mathieu 00:43:59 JUM - M 3 JUM 212
85 LAFFORGUE BERNARD 00:44:00 V3M ACSA M 1 V3M 231
86 DIJOUX Wilfrid 00:44:01 V1M - M 22 V1M 44
87 SUACOT Bernard 00:44:10 V1M - M 23 V1M 330
88 JACQUES Jean marc 00:44:30 V1M - M 24 V1M 108
89 PAYET Didier 00:44:31 SEM - M 38 SEM 286
90 DAVID Vincent 00:44:34 V1M - M 25 V1M 105
91 FREDELISY Jean Michel 00:44:41 V3M - M 2 V3M 206
92 LAUER Gaelle 00:44:46 SEF - F 6 SEF 40
93 SERY Stephane 00:44:54 SEM - M 39 SEM 307
94 MARDEMOUTOU Jean Pierre 00:44:54 V2M - M 12 V2M 263
95 LANDUCCI Adrien 00:44:56 SEM - M 40 SEM 233
96 NODODUS Vidjai 00:44:58 ESM - M 3 ESM 329
97 BELLEC Laurent 00:45:04 SEM - M 41 SEM 152
98 LANDRON fanch 00:45:05 SEM - M 42 SEM 77
99 BAILLIF Gerard Nicol 00:45:10 SEM - M 43 SEM 143
100 MARA MARIE CLAUDINE 00:45:17 V1F DA F 2 V1F 328
101 LEBRETON Francois Eric 00:45:20 V1M - M 26 V1M 244
102 PAYET Sebastien 00:45:29 SEM - M 44 SEM 291
103 LIEVRE Jerome 00:45:34 V1M - M 27 V1M 10
104 TECHER Jean Francois 00:45:45 V2M - M 13 V2M 26
105 AGENOR Nicolas 00:45:53 SEM - M 45 SEM 18
106 HOARAU Michel 00:46:12 V2M - M 14 V2M 224
107 CHARLES christophe 00:46:14 V1M - M 28 V1M 92
108 LALLEMAND Brice 00:46:20 SEM - M 46 SEM 49
109 PAYET Joseph Yves 00:46:23 V3M - M 3 V3M 287
110 MARTINPIRON JEAN LOUIS 00:46:31 V3M AC ST LEU M 4 V3M 267
111 AURE Patrick 00:46:38 V1M - M 29 V1M 1
112 CRESCENCE andre 00:46:42 V1M - M 30 V1M 52
113 GRONDIN JEAN LUC 00:46:46 V2M AC ENTENTE M 15 V2M 217
114 CADY ISAAC 00:47:05 CAM ST LOUIS M 4 CAM 110
115 CLOTAGATIDE Richard 00:47:10 V1M - M 31 V1M 174
116 SINIEN CHARLEMAGNE 00:47:18 V2M CASL M 16 V2M 309
117 FOLIO Rosaire 00:47:28 V2M - M 17 V2M 202
118 THOMAS Serge 00:47:31 V3M - M 5 V3M 316
119 THAMON marius 00:47:32 V3M - M 6 V3M 121
120 GODARD Florian 00:47:35 SEM - M 47 SEM 213
121 DALMAS PAPHAEL 00:47:38 SEM AC ST LEU M 48 SEM 182
122 PAYET Karine 00:47:38 SEF - F 7 SEF 289
123 OLERY Cedric 00:47:41 SEM - M 49 SEM 282
124 CLAIN JACQUES 00:48:08 V2M LA CHALOUP M 18 V2M 172
125 HOARAU Damien 00:48:11 CAM - M 5 CAM 222
126 PANTALEON Jean 00:48:14 V2M - M 19 V2M 283
127 DUCHEMANN VINCENT 00:48:14 SEM AC ST LEU M 50 SEM 192
128 BOYER Denis 00:48:18 V1M - M 32 V1M 158
129 FENOUILLET Maxime 00:48:30 SEM - M 51 SEM 199
130 LON MON POY Patrick 00:48:34 V1M - M 33 V1M 335
131 BEGUE Yvon 00:48:55 V3M - M 7 V3M 151
132 ETHEVE Nicolas 00:48:55 JUM - M 4 JUM 198
133 PLAN CORENTIN 00:48:55 JUM - M 5 JUM 349
134 PAUL Gregory 00:49:02 SEM - M 52 SEM 128
135 DAMOUR Desire 00:49:05 V1M - M 34 V1M 183
136 GALAOR Yderce 00:49:12 SEM - M 53 SEM 207
137 SIHOU RICHELIN 00:49:23 V3M CSSDA M 8 V3M 84
138 LAURET David 00:49:28 SEM - M 54 SEM 8
139 MAYER Cedric 00:49:34 SEM - M 55 SEM 269
140 PIVET leo 00:49:40 ESM - M 4 ESM 125
141 COLLOBERT Paol 00:49:45 SEM - M 56 SEM 177
142 GALMAR Dominique 00:49:46 V1M - M 35 V1M 209
143 SILOTIA Tony 00:49:51 SEM - M 57 SEM 308
144 BOYER Patrick 00:49:51 SEM - M 58 SEM 161
145 PHILIS VANESSA 00:49:53 SEF ACSP F 8 SEF 74
146 CORDON MAX 00:49:53 V2M AC ENTENTE M 20 V2M 98
147 ALICALAPA JEAN DENIS 00:49:57 V2M CAPP M 21 V2M 114
148 MOUROUVIN Georges Marie 00:50:00 SEM - M 59 SEM 276
149 REBOUL THIERRY 00:50:02 V1M - M 36 V1M 124
150 LATCHOUMY Jean Freddy 00:50:07 SEM - M 60 SEM 236
151 FONTAINE Guibert 00:50:08 V1M - M 37 V1M 203
152 AUTRAND Gregory 00:50:15 SEM - M 61 SEM 142
153 ROUDAUT gilles 00:50:17 V1M - M 38 V1M 59
154 VAVELIN Alain 00:50:21 V2M - M 22 V2M 56
155 PAYET Annabelle 00:50:32 SEF - F 9 SEF 285
156 VIENNE Mathieu 00:50:34 SEM - M 62 SEM 322
157 ERAPA Pascal David 00:50:36 V1M - M 39 V1M 196
158 VINCENT Sylvie 00:50:43 V1F - F 3 V1F 323
159 CADET Jonathan 00:50:48 SEM - M 63 SEM 27
160 FRANCOISE Alain 00:50:53 V1M - M 40 V1M 205
161 HELARY Xavier 00:50:54 SEM - M 64 SEM 80
162 FRANCOIS THIBAUT 00:51:00 SEM - M 65 SEM 36
163 PAYET yannick 00:51:06 SEM - M 66 SEM 5
164 CLAIN Alexandre 00:51:08 SEM - M 67 SEM 51
165 JEAN JACQUES Aldo 00:51:08 V1M - M 41 V1M 230
166 PANTALEON Laurent 00:51:09 V1M - M 42 V1M 284
167 VITRY JEAN HUGUES 00:51:10 V2M CCF RIV M 23 V2M 324
168 VITRY Priscilla 00:51:12 SEF - F 10 SEF 343
169 BARBIER Bruno 00:51:25 V2M - M 24 V2M 145
170 FIGUESTER JEAN PAUL 00:51:39 V2M ACSP M 25 V2M 200
171 BANDIERA Gilles 00:51:41 V1M - M 43 V1M 144
172 CHICON YANNICK 00:51:42 V1M RAIDERS M 44 V1M 14
173 GICQUEL celine 00:51:43 SEF - F 11 SEF 16
174 ESPARON Michel 00:51:46 SEM - M 68 SEM 197
175 LEOCADIE Kevin 00:52:04 ESM - M 5 ESM 246
176 HOAREAU Nicolas 00:52:30 SEM - M 69 SEM 42
177 CHANAREILLE Paul 00:52:45 SEM - M 70 SEM 169
178 CORENTHY Ulric 00:52:47 SEM - M 71 SEM 39
179 DELLA NEGRA KARINE 00:52:48 SEF AC ST LEU F 12 SEF 187
180 MERSENNE Florent 00:52:53 SEM - M 72 SEM 327
181 PILOU JEAN PIERRE 00:52:58 V2M ACSP M 26 V2M 348
182 JAMME Bernard 00:53:09 V1M - M 45 V1M 229
183 LAURET Jean Eric 00:53:32 SEM - M 73 SEM 237
184 DEJEAN Frederic 00:53:38 SEM - M 74 SEM 184
185 BEGUE adele 00:53:47 SEF - F 13 SEF 12
186 BEGUE Eddy 00:53:47 V2M - M 27 V2M 117
187 MAILLOT Monique 00:53:54 SEF - F 14 SEF 257
188 PIGNOLET Paul Andre 00:54:14 V1M - M 46 V1M 294
189 VIENNE Luguy 00:54:30 V1M - M 47 V1M 321
190 TAOCHY didier 00:54:32 V1M - M 48 V1M 115
191 MAILLOT Odile 00:54:58 SEF - F 15 SEF 258
192 NOISIEZ NICOLAS 00:54:59 V1M CAPOSS M 49 V1M 129
193 THOREL Alexandre 00:55:07 SEM - M 75 SEM 317
194 MAUNIER CATHERINE 00:55:14 SEF CSSDA F 16 SEF 86
195 HUNEZ Sabine 00:55:16 V1F - F 4 V1F 226
196 COLLOBERT Louise 00:55:19 ESF - F 1 ESF 176
197 COUROUPOULA yannick 00:55:25 SEM - M 76 SEM 19
198 LEROY Caroline 00:55:32 SEF - F 17 SEF 25
199 BLAS Maurice 00:55:51 V2M - M 28 V2M 24
200 MARIN Adele 00:56:01 SEF - F 18 SEF 265
201 MC GHIE Glen 00:56:01 SEM - M 77 SEM 271
202 GAUTHIER Jean Pierre 00:56:02 V1M - M 50 V1M 211
203 CASTEL MARIE CATHY 00:56:05 SEF - F 19 SEF 37
204 SAINT LAMBERT Mylene 00:56:06 SEF - F 20 SEF 101
205 COLLOBERT Patrick 00:56:09 V2M - M 29 V2M 178
206 BERFROI sandra 00:56:16 SEF - F 21 SEF 127
207 SOLTNER Denis 00:56:19 V1M - M 51 V1M 310
208 BOISSELIER THIERRY 00:56:24 V2M AC ST LEU M 30 V2M 156
209 MALIVAL ANAIS 00:56:24 SEF AC ST LEU F 22 SEF 260
210 KLEIN Pauline 00:56:33 SEF - F 23 SEF 78
211 BRANDENBOURGER AUBRIET SINDY 00:56:33 SEF - F 24 SEF 123
212 LEBRETON REINE LIA 00:56:44 V2F COSPI F 1 V2F 333
213 CODEVELLE Jeanne 00:56:54 SEF - F 25 SEF 175
214 MAILLOT Audrey 00:57:44 SEF - F 26 SEF 254
215 MORIN celine 00:57:49 SEF - F 27 SEF 50
216 HOARAU Maeva 00:58:10 SEF - F 28 SEF 223
217 DI FRANCIA ESTELLE 00:58:15 SEF - F 29 SEF 342
218 TECHER Colette 00:58:17 V2F - F 2 V2F 22
219 DELGARD Jean Paul 00:58:22 V2M - M 31 V2M 186
220 LANDAIS JACKSON 00:58:50 V1M - M 52 V1M 23
221 ANDRIEUX frederic 00:59:07 V1M - M 53 V1M 61
222 REBOUL SANDRINE 00:59:09 SEF ST LOUIS F 30 SEF 34
223 HOARAU VIRGINIE 00:59:19 CAF ST LOUIS F 1 CAF 33
224 MAILLOT Julie 00:59:37 SEF - F 31 SEF 255
225 DELGARD Catherine 00:59:52 V2F - F 3 V2F 185
226 MINATCHY EVA 00:59:58 V3F CSSDA F 2 V3F 89
227 FOLIO BEATRICE 01:00:01 SEF CSSDA F 32 SEF 96
228 CHEYNET Emmanuelle 01:00:08 V1F - F 5 V1F 171
229 NAUD GERARD 01:00:49 V3M - M 9 V3M 31
230 TAOCHY NICOLAS 01:00:52 SEM - M 78 SEM 63
231 SULA AURELIE 01:00:58 V1F ORT F 6 V1F 76
232 ALBIN Corinne 01:00:58 V2F - F 4 V2F 136
233 GIRAULT pierre 01:01:17 SEM - M 79 SEM 132
234 CADY FLEURALISSA 01:01:31 JUF ST LOUIS F 1 JUF 346
235 ODULES Estelle 01:01:56 SEF - F 33 SEF 281
236 BARBOT Marie 01:02:09 SEF - F 34 SEF 146
237 YVIN Jean Yves 01:02:26 V2M - M 32 V2M 326
238 BIVAUD Anne Christine 01:02:35 V2F - F 5 V2F 155
239 PAYET Henry 01:02:54 V1M - M 54 V1M 75
240 STIEGLITZ Mailys 01:02:56 SEF - F 35 SEF 106
241 NOYER YVES 01:03:16 V1M AC ENTENTE M 55 V1M 81
242 BOYER JEAN FRANCOIS 01:03:20 V1M - M 56 V1M 60
243 BRASSAMIN Maheva 01:04:16 SEF - F 36 SEF 162
244 PAYET Wilson 01:04:22 SEM - M 80 SEM 292
245 LEPINAY Emmanuel 01:04:26 SEM - M 81 SEM 247
246 GAUDEL Celine 01:04:26 SEF - F 37 SEF 210
247 LOUISE Gladys 01:05:17 SEF - F 38 SEF 250
248 DIAZ PERREIRA Emilia 01:05:30 V2F - F 6 V2F 188
249 MELENDEZ Tom 01:05:31 SEM - M 82 SEM 107
250 CADY AURORE 01:05:32 CAF ST LOUIS F 2 CAF 91
251 HILAIRE VIRGINIE 01:05:43 SEF ST LOUIS F 39 SEF 111
252 COMBE PATRICE 01:06:07 V2M - M 33 V2M 340
253 CAZEAU Florence 01:06:32 SEF - F 40 SEF 7
254 BIANCHERI Deborah 01:06:54 ESF - F 2 ESF 153
255 LUSBARONIAN SANDRINE 01:06:55 V1F RUN ODYSSEA F 7 V1F 251
256 BIANCHERI Olivier 01:07:01 V1M - M 57 V1M 154
257 CATALAN Christine 01:07:17 SEF - F 41 SEF 168
258 TRIHAN briac 01:07:44 JUM - M 6 JUM 46
259 MURIOT Mathilde 01:07:59 SEF - F 42 SEF 278
260 GUERINEAU Barbara 01:07:59 SEF - F 43 SEF 218
261 PONTALBA Marie Claude 01:08:23 SEF - F 44 SEF 299
262 RAGOU Nicolas 01:09:38 ESM - M 6 ESM 301
263 PATURAL MARLENE 01:10:13 SEF - F 45 SEF 339


ReferencementCe site est listé dans la catégorie Sport : Sports extrêmes Dictionnaire
| Accueil | La Réunion  Vue du ciel | Météo | Cyclones | Volcan | Cirques de Mafate , Cilaos , Salazie | Photos Randonnées | Randonnées Réunion: Randos Espiègle , Courses montagne | Diagonale des Fous |  Marathon des Sables | Voyages Les stats du site | Fonds écran | Plan du site | Blog de runraid | Galerie photos Sport Réunion |